Aviation Digital Data Service (ADDS)

Output produced by TAFs form (0607 UTC 30 July 2015)
found at http://aviationweather.gov/adds/tafs/
 
KDMN 300534Z 3006/3106 VRB06KT P6SM VCTS SCT050CB BKN100 OVC200 
     TEMPO 3006/3010 5SM TSRA SCT018 BKN040CB OVC070 
     FM301000 15005KT P6SM SCT070 BKN120 BKN250 
     FM301700 10008KT P6SM FEW050 BKN120 
     FM302200 14007KT P6SM VCTS SCT070CB SCT120 BKN250